PWSweather.com
Personal Weather Stations
Station Observations
PICKERING
North Yorkshire, PickeringGB

North YorkshirePickeringGB

Lat: 54.2494, Lon: -0.7725

Elevation: 192

Station Type: Oregon Scientific WMR100

http://www.yorkshirewalker.co.uk/weather/

High Low Average
Temperature 38.3°F3.5°C 24.4°F-4.2°C 31.5°F-0.3°C
Dew Point 32.0°F0.0°C 17.6°F-8.0°C 25.7°F-3.5°C
Winds 4.8 mph 7.7 kmh Calm Calm 1.0 mph S1.6 kmh S
Wind Gusts 9.8 mph15.8 kmh -- 3.0 mph4.8 kmh
Humidity 83% 74% 79%
Pressure 29.24 in990.2 mb 28.65 in970.2 mb -
Precipitation 0.13 in3.3 mm - -
Hour Temp Dew Point Humidity Winds Wind Gusts Pressure Precip Precip Rate Daily Precip Total
12:00 AM 26.2°F-3.2°C 17.6°F-8.0°C 74% 1.0 mph WSW1.6 kmh WSW 2.0 mph3.2 kmh 29.24 in990.2 mb 0.00 in0.0 mm 0.00 in0.0 mm 0.00 in0.0 mm
12:05 AM 26.1°F-3.3°C 17.6°F-8.0°C 74% 0.9 mph W1.4 kmh W 2.0 mph3.2 kmh 29.24 in990.2 mb 0.00 in0.0 mm 0.00 in0.0 mm 0.00 in0.0 mm
12:10 AM 25.9°F-3.4°C 17.6°F-8.0°C 74% 0.6 mph N1.0 kmh N 1.3 mph2.1 kmh 29.24 in990.2 mb 0.00 in0.0 mm 0.00 in0.0 mm 0.00 in0.0 mm
12:15 AM 25.9°F-3.4°C 17.6°F-8.0°C 74% 0.5 mph N0.8 kmh N 1.3 mph2.1 kmh 29.24 in990.2 mb 0.00 in0.0 mm 0.00 in0.0 mm 0.00 in0.0 mm
12:20 AM 25.7°F-3.5°C 17.6°F-8.0°C 74% 0.1 mph N0.2 kmh N 1.3 mph2.1 kmh 29.24 in990.2 mb 0.00 in0.0 mm 0.00 in0.0 mm 0.00 in0.0 mm
12:25 AM 25.3°F-3.7°C 17.6°F-8.0°C 74% Calm Calm -- 29.21 in989.2 mb 0.00 in0.0 mm 0.00 in0.0 mm 0.00 in0.0 mm
12:30 AM 25.2°F-3.8°C 17.6°F-8.0°C 74% Calm Calm -- 29.21 in989.2 mb 0.00 in0.0 mm 0.00 in0.0 mm 0.00 in0.0 mm
12:35 AM 25.3°F-3.7°C 17.6°F-8.0°C 74% Calm Calm -- 29.21 in989.2 mb 0.00 in0.0 mm 0.00 in0.0 mm 0.00 in0.0 mm
12:40 AM 25.2°F-3.8°C 17.6°F-8.0°C 74% Calm Calm -- 29.21 in989.2 mb 0.00 in0.0 mm 0.00 in0.0 mm 0.00 in0.0 mm
12:45 AM 25.2°F-3.8°C 17.6°F-8.0°C 74% Calm Calm -- 29.21 in989.2 mb 0.00 in0.0 mm 0.00 in0.0 mm 0.00 in0.0 mm
12:50 AM 25.0°F-3.9°C 17.6°F-8.0°C 74% Calm Calm -- 29.21 in989.2 mb 0.00 in0.0 mm 0.00 in0.0 mm 0.00 in0.0 mm
12:55 AM 25.0°F-3.9°C 17.6°F-8.0°C 74% Calm Calm -- 29.06 in984.1 mb 0.00 in0.0 mm 0.00 in0.0 mm 0.00 in0.0 mm
01:00 AM 25.0°F-3.9°C 17.6°F-8.0°C 75% Calm Calm -- 29.06 in984.1 mb 0.00 in0.0 mm 0.00 in0.0 mm 0.00 in0.0 mm
01:05 AM 24.8°F-4.0°C 17.6°F-8.0°C 75% 0.2 mph NW0.3 kmh NW 0.9 mph1.4 kmh 29.06 in984.1 mb 0.00 in0.0 mm 0.00 in0.0 mm 0.00 in0.0 mm
01:10 AM 24.6°F-4.1°C 17.6°F-8.0°C 75% 0.3 mph N0.5 kmh N 0.9 mph1.4 kmh 29.18 in988.1 mb 0.00 in0.0 mm 0.00 in0.0 mm 0.00 in0.0 mm
01:15 AM 24.8°F-4.0°C 17.6°F-8.0°C 75% 0.2 mph NNE0.3 kmh NNE 0.9 mph1.4 kmh 29.18 in988.1 mb 0.00 in0.0 mm 0.00 in0.0 mm 0.00 in0.0 mm
01:20 AM 24.6°F-4.1°C 17.6°F-8.0°C 75% Calm Calm -- 29.18 in988.1 mb 0.00 in0.0 mm 0.00 in0.0 mm 0.00 in0.0 mm
01:25 AM 24.8°F-4.0°C 17.6°F-8.0°C 75% 0.2 mph NE0.3 kmh NE 0.9 mph1.4 kmh 29.21 in989.2 mb 0.00 in0.0 mm 0.00 in0.0 mm 0.00 in0.0 mm
01:30 AM 24.8°F-4.0°C 17.6°F-8.0°C 75% 0.2 mph NE0.3 kmh NE 0.9 mph1.4 kmh 29.21 in989.2 mb 0.00 in0.0 mm 0.00 in0.0 mm 0.00 in0.0 mm
01:35 AM 24.8°F-4.0°C 17.6°F-8.0°C 75% Calm Calm -- 29.21 in989.2 mb 0.00 in0.0 mm 0.00 in0.0 mm 0.00 in0.0 mm
01:40 AM 24.6°F-4.1°C 17.6°F-8.0°C 75% Calm Calm -- 29.18 in988.1 mb 0.00 in0.0 mm 0.00 in0.0 mm 0.00 in0.0 mm
01:45 AM 24.8°F-4.0°C 17.6°F-8.0°C 75% 0.1 mph NE0.2 kmh NE 0.9 mph1.4 kmh 29.18 in988.1 mb 0.00 in0.0 mm 0.00 in0.0 mm 0.00 in0.0 mm
01:50 AM 24.8°F-4.0°C 17.6°F-8.0°C 75% 0.1 mph NE0.2 kmh NE 0.9 mph1.4 kmh 29.18 in988.1 mb 0.00 in0.0 mm 0.00 in0.0 mm 0.00 in0.0 mm
01:55 AM 24.8°F-4.0°C 17.6°F-8.0°C 75% 0.1 mph NE0.2 kmh NE 0.9 mph1.4 kmh 29.18 in988.1 mb 0.00 in0.0 mm 0.00 in0.0 mm 0.00 in0.0 mm
02:00 AM 24.6°F-4.1°C 17.6°F-8.0°C 75% 0.1 mph NE0.2 kmh NE 0.9 mph1.4 kmh 29.18 in988.1 mb 0.00 in0.0 mm 0.00 in0.0 mm 0.00 in0.0 mm
02:05 AM 24.6°F-4.1°C 17.6°F-8.0°C 75% Calm Calm -- 29.18 in988.1 mb 0.00 in0.0 mm 0.00 in0.0 mm 0.00 in0.0 mm
02:10 AM 24.8°F-4.0°C 17.6°F-8.0°C 76% 0.1 mph NE0.2 kmh NE 0.9 mph1.4 kmh 29.12 in986.1 mb 0.00 in0.0 mm 0.00 in0.0 mm 0.00 in0.0 mm
02:15 AM 24.6°F-4.1°C 17.6°F-8.0°C 76% 0.1 mph NE0.2 kmh NE 0.9 mph1.4 kmh 29.12 in986.1 mb 0.00 in0.0 mm 0.00 in0.0 mm 0.00 in0.0 mm
02:20 AM 24.6°F-4.1°C 17.6°F-8.0°C 76% Calm Calm -- 29.12 in986.1 mb 0.00 in0.0 mm 0.00 in0.0 mm 0.00 in0.0 mm
02:25 AM 24.8°F-4.0°C 17.6°F-8.0°C 76% 0.1 mph NE0.2 kmh NE 0.9 mph1.4 kmh 29.15 in987.1 mb 0.00 in0.0 mm 0.00 in0.0 mm 0.00 in0.0 mm
02:30 AM 24.6°F-4.1°C 17.6°F-8.0°C 76% 0.3 mph NE0.5 kmh NE 1.1 mph1.8 kmh 29.15 in987.1 mb 0.00 in0.0 mm 0.00 in0.0 mm 0.00 in0.0 mm
02:35 AM 24.4°F-4.2°C 17.6°F-8.0°C 76% 0.2 mph NE0.3 kmh NE 1.1 mph1.8 kmh 29.15 in987.1 mb 0.00 in0.0 mm 0.00 in0.0 mm 0.00 in0.0 mm
02:40 AM 24.4°F-4.2°C 17.6°F-8.0°C 76% Calm Calm -- 29.09 in985.1 mb 0.00 in0.0 mm 0.00 in0.0 mm 0.00 in0.0 mm
02:45 AM 24.4°F-4.2°C 17.6°F-8.0°C 76% Calm Calm -- 29.09 in985.1 mb 0.00 in0.0 mm 0.00 in0.0 mm 0.00 in0.0 mm
02:50 AM 24.4°F-4.2°C 17.6°F-8.0°C 76% 0.1 mph NE0.2 kmh NE 0.9 mph1.4 kmh 29.09 in985.1 mb 0.00 in0.0 mm 0.00 in0.0 mm 0.00 in0.0 mm
02:55 AM 24.8°F-4.0°C 17.6°F-8.0°C 76% 0.1 mph NE0.2 kmh NE 0.9 mph1.4 kmh 29.15 in987.1 mb 0.00 in0.0 mm 0.00 in0.0 mm 0.00 in0.0 mm
03:00 AM 24.6°F-4.1°C 17.6°F-8.0°C 76% Calm Calm -- 29.15 in987.1 mb 0.00 in0.0 mm 0.00 in0.0 mm 0.00 in0.0 mm
03:05 AM 24.4°F-4.2°C 17.6°F-8.0°C 76% Calm Calm -- 29.15 in987.1 mb 0.00 in0.0 mm 0.00 in0.0 mm 0.00 in0.0 mm
03:10 AM 24.6°F-4.1°C 17.6°F-8.0°C 76% Calm Calm -- 29.15 in987.1 mb 0.00 in0.0 mm 0.00 in0.0 mm 0.00 in0.0 mm
03:15 AM 24.6°F-4.1°C 17.6°F-8.0°C 77% Calm Calm -- 29.15 in987.1 mb 0.00 in0.0 mm 0.00 in0.0 mm 0.00 in0.0 mm
03:20 AM 24.4°F-4.2°C 17.6°F-8.0°C 76% 0.1 mph NE0.2 kmh NE 0.9 mph1.4 kmh 29.15 in987.1 mb 0.00 in0.0 mm 0.00 in0.0 mm 0.00 in0.0 mm
03:25 AM 24.4°F-4.2°C 17.6°F-8.0°C 76% 0.1 mph NE0.2 kmh NE 0.9 mph1.4 kmh 29.15 in987.1 mb 0.00 in0.0 mm 0.00 in0.0 mm 0.00 in0.0 mm
03:30 AM 24.6°F-4.1°C 17.6°F-8.0°C 77% 0.6 mph NE1.0 kmh NE 1.6 mph2.6 kmh 29.15 in987.1 mb 0.00 in0.0 mm 0.00 in0.0 mm 0.00 in0.0 mm
03:35 AM 25.0°F-3.9°C 17.6°F-8.0°C 77% 0.8 mph NE1.3 kmh NE 1.6 mph2.6 kmh 29.15 in987.1 mb 0.00 in0.0 mm 0.00 in0.0 mm 0.00 in0.0 mm
03:40 AM 25.0°F-3.9°C 17.6°F-8.0°C 77% 0.8 mph NE1.3 kmh NE 1.6 mph2.6 kmh 29.12 in986.1 mb 0.00 in0.0 mm 0.00 in0.0 mm 0.00 in0.0 mm
03:45 AM 24.8°F-4.0°C 17.6°F-8.0°C 77% 0.6 mph NE1.0 kmh NE 1.6 mph2.6 kmh 29.12 in986.1 mb 0.00 in0.0 mm 0.00 in0.0 mm 0.00 in0.0 mm
03:50 AM 25.2°F-3.8°C 19.4°F-7.0°C 77% 1.0 mph NE1.6 kmh NE 2.9 mph4.7 kmh 29.12 in986.1 mb 0.00 in0.0 mm 0.00 in0.0 mm 0.00 in0.0 mm
03:55 AM 25.2°F-3.8°C 19.4°F-7.0°C 77% 1.2 mph NE1.9 kmh NE 2.9 mph4.7 kmh 29.12 in986.1 mb 0.00 in0.0 mm 0.00 in0.0 mm 0.00 in0.0 mm
04:00 AM 25.2°F-3.8°C 19.4°F-7.0°C 77% 0.7 mph NE1.1 kmh NE 2.9 mph4.7 kmh 29.12 in986.1 mb 0.00 in0.0 mm 0.00 in0.0 mm 0.00 in0.0 mm
04:05 AM 24.8°F-4.0°C 17.6°F-8.0°C 77% Calm Calm -- 29.12 in986.1 mb 0.00 in0.0 mm 0.00 in0.0 mm 0.00 in0.0 mm
04:10 AM 25.0°F-3.9°C 17.6°F-8.0°C 77% Calm Calm -- 29.12 in986.1 mb 0.00 in0.0 mm 0.00 in0.0 mm 0.00 in0.0 mm
04:15 AM 25.0°F-3.9°C 17.6°F-8.0°C 77% Calm Calm -- 29.12 in986.1 mb 0.00 in0.0 mm 0.00 in0.0 mm 0.00 in0.0 mm
04:20 AM 25.3°F-3.7°C 19.4°F-7.0°C 78% 0.2 mph ENE0.3 kmh ENE 0.9 mph1.4 kmh 29.12 in986.1 mb 0.00 in0.0 mm 0.00 in0.0 mm 0.00 in0.0 mm
04:25 AM 25.5°F-3.6°C 19.4°F-7.0°C 78% 0.2 mph ENE0.3 kmh ENE 0.9 mph1.4 kmh 29.09 in985.1 mb 0.00 in0.0 mm 0.00 in0.0 mm 0.00 in0.0 mm
04:30 AM 25.7°F-3.5°C 19.4°F-7.0°C 78% 0.1 mph S0.2 kmh S 0.9 mph1.4 kmh 29.09 in985.1 mb 0.00 in0.0 mm 0.00 in0.0 mm 0.00 in0.0 mm
04:35 AM 25.7°F-3.5°C 19.4°F-7.0°C 78% 0.2 mph SSE0.3 kmh SSE 1.1 mph1.8 kmh 29.09 in985.1 mb 0.00 in0.0 mm 0.00 in0.0 mm 0.00 in0.0 mm
04:40 AM 25.9°F-3.4°C 19.4°F-7.0°C 78% 0.5 mph ENE0.8 kmh ENE 1.3 mph2.1 kmh 29.09 in985.1 mb 0.00 in0.0 mm 0.00 in0.0 mm 0.00 in0.0 mm
04:45 AM 25.7°F-3.5°C 19.4°F-7.0°C 78% 0.9 mph NE1.4 kmh NE 2.0 mph3.2 kmh 29.09 in985.1 mb 0.00 in0.0 mm 0.00 in0.0 mm 0.00 in0.0 mm
04:50 AM 25.7°F-3.5°C 19.4°F-7.0°C 78% 0.8 mph NE1.3 kmh NE 2.0 mph3.2 kmh 29.09 in985.1 mb 0.00 in0.0 mm 0.00 in0.0 mm 0.00 in0.0 mm
04:55 AM 25.7°F-3.5°C 19.4°F-7.0°C 78% 0.6 mph NE1.0 kmh NE 2.0 mph3.2 kmh 29.09 in985.1 mb 0.00 in0.0 mm 0.00 in0.0 mm 0.00 in0.0 mm
05:00 AM 25.9°F-3.4°C 19.4°F-7.0°C 78% 0.6 mph NE1.0 kmh NE 2.0 mph3.2 kmh 29.09 in985.1 mb 0.00 in0.0 mm 0.00 in0.0 mm 0.00 in0.0 mm
05:05 AM 26.1°F-3.3°C 19.4°F-7.0°C 78% 0.4 mph NE0.6 kmh NE 1.3 mph2.1 kmh 29.09 in985.1 mb 0.00 in0.0 mm 0.00 in0.0 mm 0.00 in0.0 mm
05:10 AM 26.4°F-3.1°C 19.4°F-7.0°C 78% 0.3 mph NE0.5 kmh NE 1.3 mph2.1 kmh 29.09 in985.1 mb 0.00 in0.0 mm 0.00 in0.0 mm 0.00 in0.0 mm
05:15 AM 26.6°F-3.0°C 19.4°F-7.0°C 78% 0.4 mph ENE0.6 kmh ENE 1.6 mph2.6 kmh 29.09 in985.1 mb 0.00 in0.0 mm 0.00 in0.0 mm 0.00 in0.0 mm
05:20 AM 26.6°F-3.0°C 19.4°F-7.0°C 78% 0.3 mph E0.5 kmh E 1.6 mph2.6 kmh 29.09 in985.1 mb 0.00 in0.0 mm 0.00 in0.0 mm 0.00 in0.0 mm
05:25 AM 26.8°F-2.9°C 19.4°F-7.0°C 78% Calm Calm -- 29.06 in984.1 mb 0.00 in0.0 mm 0.00 in0.0 mm 0.00 in0.0 mm
05:30 AM 26.8°F-2.9°C 19.4°F-7.0°C 78% Calm Calm -- 29.06 in984.1 mb 0.00 in0.0 mm 0.00 in0.0 mm 0.00 in0.0 mm
05:35 AM 27.1°F-2.7°C 19.4°F-7.0°C 78% 0.2 mph NE0.3 kmh NE 1.3 mph2.1 kmh 29.06 in984.1 mb 0.00 in0.0 mm 0.00 in0.0 mm 0.00 in0.0 mm
05:40 AM 27.0°F-2.8°C 19.4°F-7.0°C 78% 0.2 mph NE0.3 kmh NE 1.3 mph2.1 kmh 29.00 in982.1 mb 0.00 in0.0 mm 0.00 in0.0 mm 0.00 in0.0 mm
05:45 AM 27.5°F-2.5°C 21.2°F-6.0°C 79% 0.4 mph SW0.6 kmh SW 2.7 mph4.3 kmh 29.00 in982.1 mb 0.00 in0.0 mm 0.00 in0.0 mm 0.00 in0.0 mm
05:50 AM 27.5°F-2.5°C 21.2°F-6.0°C 79% 0.4 mph SW0.6 kmh SW 2.7 mph4.3 kmh 29.00 in982.1 mb 0.00 in0.0 mm 0.00 in0.0 mm 0.00 in0.0 mm
05:55 AM 27.7°F-2.4°C 21.2°F-6.0°C 79% Calm Calm -- 29.03 in983.1 mb 0.00 in0.0 mm 0.00 in0.0 mm 0.00 in0.0 mm
06:00 AM 28.0°F-2.2°C 21.2°F-6.0°C 79% 0.1 mph WSW0.2 kmh WSW 1.6 mph2.6 kmh 29.03 in983.1 mb 0.00 in0.0 mm 0.00 in0.0 mm 0.00 in0.0 mm
06:05 AM 28.6°F-1.9°C 21.2°F-6.0°C 79% 0.2 mph WSW0.3 kmh WSW 1.6 mph2.6 kmh 29.03 in983.1 mb 0.00 in0.0 mm 0.00 in0.0 mm 0.00 in0.0 mm
06:10 AM 28.6°F-1.9°C 21.2°F-6.0°C 79% 0.1 mph WSW0.2 kmh WSW 1.6 mph2.6 kmh 29.00 in982.1 mb 0.00 in0.0 mm 0.00 in0.0 mm 0.00 in0.0 mm
06:15 AM 29.1°F-1.6°C 23.0°F-5.0°C 79% Calm Calm -- 29.00 in982.1 mb 0.00 in0.0 mm 0.00 in0.0 mm 0.00 in0.0 mm
06:20 AM 29.5°F-1.4°C 23.0°F-5.0°C 80% 0.3 mph S0.5 kmh S 1.6 mph2.6 kmh 29.00 in982.1 mb 0.00 in0.0 mm 0.00 in0.0 mm 0.00 in0.0 mm
06:25 AM 29.3°F-1.5°C 23.0°F-5.0°C 80% 0.3 mph S0.5 kmh S 1.6 mph2.6 kmh 29.03 in983.1 mb 0.00 in0.0 mm 0.00 in0.0 mm 0.00 in0.0 mm
06:30 AM 29.7°F-1.3°C 23.0°F-5.0°C 80% 0.1 mph SE0.2 kmh SE 0.9 mph1.4 kmh 29.03 in983.1 mb 0.00 in0.0 mm 0.00 in0.0 mm 0.00 in0.0 mm
06:35 AM 29.7°F-1.3°C 23.0°F-5.0°C 80% 0.1 mph SE0.2 kmh SE 0.9 mph1.4 kmh 29.03 in983.1 mb 0.00 in0.0 mm 0.00 in0.0 mm 0.00 in0.0 mm
06:40 AM 29.7°F-1.3°C 23.0°F-5.0°C 80% Calm Calm -- 29.00 in982.1 mb 0.00 in0.0 mm 0.00 in0.0 mm 0.00 in0.0 mm
06:45 AM 29.7°F-1.3°C 23.0°F-5.0°C 80% Calm Calm -- 29.00 in982.1 mb 0.00 in0.0 mm 0.00 in0.0 mm 0.00 in0.0 mm
06:50 AM 29.8°F-1.2°C 23.0°F-5.0°C 80% Calm Calm -- 29.00 in982.1 mb 0.00 in0.0 mm 0.00 in0.0 mm 0.00 in0.0 mm
06:55 AM 30.2°F-1.0°C 23.0°F-5.0°C 80% 0.5 mph S0.8 kmh S 2.7 mph4.3 kmh 29.00 in982.1 mb 0.00 in0.0 mm 0.00 in0.0 mm 0.00 in0.0 mm
07:00 AM 30.4°F-0.9°C 23.0°F-5.0°C 80% 0.5 mph S0.8 kmh S 2.7 mph4.3 kmh 29.00 in982.1 mb 0.00 in0.0 mm 0.00 in0.0 mm 0.00 in0.0 mm
07:05 AM 30.7°F-0.7°C 24.8°F-4.0°C 80% 0.9 mph S1.4 kmh S 2.7 mph4.3 kmh 29.00 in982.1 mb 0.00 in0.0 mm 0.00 in0.0 mm 0.00 in0.0 mm
07:10 AM 30.9°F-0.6°C 24.8°F-4.0°C 80% 2.2 mph S3.5 kmh S 4.7 mph7.6 kmh 29.00 in982.1 mb 0.00 in0.0 mm 0.00 in0.0 mm 0.00 in0.0 mm
07:15 AM 30.9°F-0.6°C 24.8°F-4.0°C 80% 2.6 mph S4.2 kmh S 4.7 mph7.6 kmh 29.00 in982.1 mb 0.00 in0.0 mm 0.00 in0.0 mm 0.00 in0.0 mm
07:20 AM 31.3°F-0.4°C 24.8°F-4.0°C 80% 2.3 mph S3.7 kmh S 3.6 mph5.8 kmh 29.00 in982.1 mb 0.00 in0.0 mm 0.00 in0.0 mm 0.00 in0.0 mm
07:25 AM 31.3°F-0.4°C 24.8°F-4.0°C 80% 2.3 mph S3.7 kmh S 4.3 mph6.9 kmh 29.00 in982.1 mb 0.00 in0.0 mm 0.00 in0.0 mm 0.00 in0.0 mm
07:30 AM 31.5°F-0.3°C 24.8°F-4.0°C 80% 2.6 mph S4.2 kmh S 4.3 mph6.9 kmh 29.00 in982.1 mb 0.00 in0.0 mm 0.00 in0.0 mm 0.00 in0.0 mm
07:35 AM 31.5°F-0.3°C 24.8°F-4.0°C 80% 2.4 mph S3.9 kmh S 4.3 mph6.9 kmh 29.00 in982.1 mb 0.00 in0.0 mm 0.00 in0.0 mm 0.00 in0.0 mm
07:40 AM 31.5°F-0.3°C 24.8°F-4.0°C 80% 2.2 mph S3.5 kmh S 6.0 mph9.7 kmh 29.00 in982.1 mb 0.00 in0.0 mm 0.00 in0.0 mm 0.00 in0.0 mm
07:45 AM 31.5°F-0.3°C 24.8°F-4.0°C 80% 1.7 mph S2.7 kmh S 6.0 mph9.7 kmh 29.00 in982.1 mb 0.00 in0.0 mm 0.00 in0.0 mm 0.00 in0.0 mm
07:50 AM 31.5°F-0.3°C 24.8°F-4.0°C 80% 1.2 mph SSW1.9 kmh SSW 3.6 mph5.8 kmh 29.00 in982.1 mb 0.00 in0.0 mm 0.00 in0.0 mm 0.00 in0.0 mm
07:55 AM 31.5°F-0.3°C 24.8°F-4.0°C 80% 1.4 mph SSW2.3 kmh SSW 4.3 mph6.9 kmh 29.00 in982.1 mb 0.00 in0.0 mm 0.00 in0.0 mm 0.00 in0.0 mm
08:00 AM 31.6°F-0.2°C 24.8°F-4.0°C 80% 1.8 mph S2.9 kmh S 4.3 mph6.9 kmh 29.00 in982.1 mb 0.00 in0.0 mm 0.00 in0.0 mm 0.00 in0.0 mm
08:05 AM 31.5°F-0.3°C 24.8°F-4.0°C 80% 1.3 mph S2.1 kmh S 3.4 mph5.5 kmh 29.00 in982.1 mb 0.00 in0.0 mm 0.00 in0.0 mm 0.00 in0.0 mm
08:10 AM 31.6°F-0.2°C 24.8°F-4.0°C 80% 1.2 mph S1.9 kmh S 3.1 mph5.0 kmh 29.00 in982.1 mb 0.00 in0.0 mm 0.00 in0.0 mm 0.00 in0.0 mm
08:15 AM 31.6°F-0.2°C 24.8°F-4.0°C 80% 0.9 mph S1.4 kmh S 3.1 mph5.0 kmh 29.00 in982.1 mb 0.00 in0.0 mm 0.00 in0.0 mm 0.00 in0.0 mm
08:20 AM 31.6°F-0.2°C 24.8°F-4.0°C 80% 0.2 mph S0.3 kmh S 1.3 mph2.1 kmh 29.00 in982.1 mb 0.00 in0.0 mm 0.00 in0.0 mm 0.00 in0.0 mm
08:25 AM 31.5°F-0.3°C 24.8°F-4.0°C 80% 0.1 mph ESE0.2 kmh ESE 0.9 mph1.4 kmh 29.00 in982.1 mb 0.00 in0.0 mm 0.00 in0.0 mm 0.00 in0.0 mm
08:30 AM 31.5°F-0.3°C 24.8°F-4.0°C 80% 0.2 mph WSW0.3 kmh WSW 2.5 mph4.0 kmh 29.00 in982.1 mb 0.00 in0.0 mm 0.00 in0.0 mm 0.00 in0.0 mm
08:35 AM 31.6°F-0.2°C 24.8°F-4.0°C 80% 0.6 mph WSW1.0 kmh WSW 2.5 mph4.0 kmh 29.00 in982.1 mb 0.00 in0.0 mm 0.00 in0.0 mm 0.00 in0.0 mm
08:40 AM 31.6°F-0.2°C 24.8°F-4.0°C 80% 0.8 mph SW1.3 kmh SW 2.5 mph4.0 kmh 29.00 in982.1 mb 0.00 in0.0 mm 0.00 in0.0 mm 0.00 in0.0 mm
08:45 AM 32.0°F0.0°C 24.8°F-4.0°C 80% 0.4 mph S0.6 kmh S 1.3 mph2.1 kmh 29.00 in982.1 mb 0.00 in0.0 mm 0.00 in0.0 mm 0.00 in0.0 mm
08:50 AM 32.0°F0.0°C 24.8°F-4.0°C 80% 1.2 mph S1.9 kmh S 3.6 mph5.8 kmh 29.00 in982.1 mb 0.00 in0.0 mm 0.00 in0.0 mm 0.00 in0.0 mm
08:55 AM 32.0°F0.0°C 24.8°F-4.0°C 80% 1.4 mph S2.3 kmh S 3.6 mph5.8 kmh 28.97 in981.0 mb 0.00 in0.0 mm 0.00 in0.0 mm 0.00 in0.0 mm
09:00 AM 32.0°F0.0°C 24.8°F-4.0°C 80% 0.5 mph S0.8 kmh S 2.2 mph3.5 kmh 28.97 in981.0 mb 0.00 in0.0 mm 0.00 in0.0 mm 0.00 in0.0 mm
09:05 AM 32.0°F0.0°C 24.8°F-4.0°C 80% 0.7 mph SW1.1 kmh SW 3.4 mph5.5 kmh 28.97 in981.0 mb 0.00 in0.0 mm 0.00 in0.0 mm 0.00 in0.0 mm
09:10 AM 32.0°F0.0°C 24.8°F-4.0°C 80% 1.0 mph SW1.6 kmh SW 3.4 mph5.5 kmh 29.00 in982.1 mb 0.00 in0.0 mm 0.00 in0.0 mm 0.00 in0.0 mm
09:15 AM 32.2°F0.1°C 26.6°F-3.0°C 80% 0.6 mph SW1.0 kmh SW 2.5 mph4.0 kmh 29.00 in982.1 mb 0.00 in0.0 mm 0.00 in0.0 mm 0.00 in0.0 mm
09:20 AM 32.2°F0.1°C 26.6°F-3.0°C 80% 0.6 mph SW1.0 kmh SW 2.5 mph4.0 kmh 29.00 in982.1 mb 0.00 in0.0 mm 0.00 in0.0 mm 0.00 in0.0 mm
09:25 AM 32.4°F0.2°C 26.6°F-3.0°C 80% 0.7 mph WSW1.1 kmh WSW 2.0 mph3.2 kmh 29.03 in983.1 mb 0.00 in0.0 mm 0.00 in0.0 mm 0.00 in0.0 mm
09:30 AM 32.4°F0.2°C 26.6°F-3.0°C 80% 1.0 mph WSW1.6 kmh WSW 2.5 mph4.0 kmh 29.03 in983.1 mb 0.00 in0.0 mm 0.00 in0.0 mm 0.00 in0.0 mm
09:35 AM 32.5°F0.3°C 26.6°F-3.0°C 79% 0.8 mph WSW1.3 kmh WSW 2.5 mph4.0 kmh 29.03 in983.1 mb 0.00 in0.0 mm 0.00 in0.0 mm 0.00 in0.0 mm
09:40 AM 32.9°F0.5°C 28.4°F-2.0°C 80% 0.5 mph SSW0.8 kmh SSW 1.6 mph2.6 kmh 29.03 in983.1 mb 0.00 in0.0 mm 0.00 in0.0 mm 0.00 in0.0 mm
09:45 AM 32.9°F0.5°C 28.4°F-2.0°C 80% 0.5 mph SSE0.8 kmh SSE 2.0 mph3.2 kmh 29.03 in983.1 mb 0.00 in0.0 mm 0.00 in0.0 mm 0.00 in0.0 mm
09:50 AM 33.1°F0.6°C 28.4°F-2.0°C 80% 0.8 mph S1.3 kmh S 2.0 mph3.2 kmh 29.03 in983.1 mb 0.00 in0.0 mm 0.00 in0.0 mm 0.00 in0.0 mm
09:55 AM 33.4°F0.8°C 28.4°F-2.0°C 79% 2.1 mph SSW3.4 kmh SSW 4.0 mph6.4 kmh 29.03 in983.1 mb 0.00 in0.0 mm 0.00 in0.0 mm 0.00 in0.0 mm
10:00 AM 33.6°F0.9°C 28.4°F-2.0°C 79% 3.1 mph SSW5.0 kmh SSW 4.0 mph6.4 kmh 29.03 in983.1 mb 0.00 in0.0 mm 0.00 in0.0 mm 0.00 in0.0 mm
10:05 AM 33.8°F1.0°C 28.4°F-2.0°C 79% 2.9 mph SSW4.7 kmh SSW 4.0 mph6.4 kmh 29.03 in983.1 mb 0.00 in0.0 mm 0.00 in0.0 mm 0.00 in0.0 mm
10:10 AM 34.0°F1.1°C 28.4°F-2.0°C 79% 1.9 mph SW3.1 kmh SW 3.8 mph6.1 kmh 29.03 in983.1 mb 0.00 in0.0 mm 0.00 in0.0 mm 0.00 in0.0 mm
10:15 AM 34.0°F1.1°C 28.4°F-2.0°C 79% 2.2 mph SSW3.5 kmh SSW 6.5 mph10.5 kmh 29.03 in983.1 mb 0.00 in0.0 mm 0.00 in0.0 mm 0.00 in0.0 mm
10:20 AM 34.2°F1.2°C 28.4°F-2.0°C 79% 2.2 mph S3.5 kmh S 6.5 mph10.5 kmh 29.03 in983.1 mb 0.00 in0.0 mm 0.00 in0.0 mm 0.00 in0.0 mm
10:25 AM 34.2°F1.2°C 28.4°F-2.0°C 79% 2.2 mph SSW3.5 kmh SSW 6.5 mph10.5 kmh 29.00 in982.1 mb 0.00 in0.0 mm 0.00 in0.0 mm 0.00 in0.0 mm
10:30 AM 34.2°F1.2°C 28.4°F-2.0°C 79% 2.3 mph S3.7 kmh S 3.8 mph6.1 kmh 29.00 in982.1 mb 0.00 in0.0 mm 0.00 in0.0 mm 0.00 in0.0 mm
10:35 AM 34.2°F1.2°C 28.4°F-2.0°C 79% 2.8 mph SSW4.5 kmh SSW 3.8 mph6.1 kmh 29.00 in982.1 mb 0.00 in0.0 mm 0.00 in0.0 mm 0.00 in0.0 mm
10:40 AM 34.3°F1.3°C 28.4°F-2.0°C 79% 2.1 mph SW3.4 kmh SW 3.6 mph5.8 kmh 29.00 in982.1 mb 0.00 in0.0 mm 0.00 in0.0 mm 0.00 in0.0 mm
10:45 AM 34.5°F1.4°C 28.4°F-2.0°C 79% 1.3 mph SW2.1 kmh SW 3.4 mph5.5 kmh 29.00 in982.1 mb 0.00 in0.0 mm 0.00 in0.0 mm 0.00 in0.0 mm
10:50 AM 34.5°F1.4°C 28.4°F-2.0°C 79% 1.5 mph S2.4 kmh S 3.4 mph5.5 kmh 29.00 in982.1 mb 0.00 in0.0 mm 0.00 in0.0 mm 0.00 in0.0 mm
10:55 AM 34.7°F1.5°C 30.2°F-1.0°C 79% 1.5 mph S2.4 kmh S 3.8 mph6.1 kmh 29.00 in982.1 mb 0.00 in0.0 mm 0.00 in0.0 mm 0.00 in0.0 mm
11:00 AM 34.7°F1.5°C 30.2°F-1.0°C 79% 1.8 mph S2.9 kmh S 3.8 mph6.1 kmh 29.00 in982.1 mb 0.00 in0.0 mm 0.00 in0.0 mm 0.00 in0.0 mm
11:05 AM 34.9°F1.6°C 30.2°F-1.0°C 79% 2.0 mph S3.2 kmh S 3.8 mph6.1 kmh 29.00 in982.1 mb 0.00 in0.0 mm 0.00 in0.0 mm 0.00 in0.0 mm
11:10 AM 34.9°F1.6°C 30.2°F-1.0°C 79% 2.0 mph S3.2 kmh S 4.3 mph6.9 kmh 29.00 in982.1 mb 0.00 in0.0 mm 0.00 in0.0 mm 0.00 in0.0 mm
11:15 AM 35.1°F1.7°C 30.2°F-1.0°C 79% 1.9 mph S3.1 kmh S 4.7 mph7.6 kmh 29.00 in982.1 mb 0.00 in0.0 mm 0.00 in0.0 mm 0.00 in0.0 mm
11:20 AM 35.1°F1.7°C 30.2°F-1.0°C 79% 1.5 mph S2.4 kmh S 4.7 mph7.6 kmh 29.00 in982.1 mb 0.00 in0.0 mm 0.00 in0.0 mm 0.00 in0.0 mm
11:25 AM 35.1°F1.7°C 30.2°F-1.0°C 79% 2.5 mph S4.0 kmh S 7.4 mph11.9 kmh 28.97 in981.0 mb 0.00 in0.0 mm 0.00 in0.0 mm 0.00 in0.0 mm
11:30 AM 35.2°F1.8°C 30.2°F-1.0°C 79% 3.1 mph S5.0 kmh S 7.4 mph11.9 kmh 28.97 in981.0 mb 0.00 in0.0 mm 0.00 in0.0 mm 0.00 in0.0 mm
11:35 AM 35.2°F1.8°C 30.2°F-1.0°C 79% 2.1 mph S3.4 kmh S 4.3 mph6.9 kmh 28.97 in981.0 mb 0.00 in0.0 mm 0.00 in0.0 mm 0.00 in0.0 mm
11:40 AM 35.2°F1.8°C 28.4°F-2.0°C 78% 2.3 mph S3.7 kmh S 5.4 mph8.7 kmh 28.97 in981.0 mb 0.00 in0.0 mm 0.00 in0.0 mm 0.00 in0.0 mm
11:45 AM 35.4°F1.9°C 30.2°F-1.0°C 78% 3.1 mph S5.0 kmh S 5.4 mph8.7 kmh 28.97 in981.0 mb 0.00 in0.0 mm 0.00 in0.0 mm 0.00 in0.0 mm
11:50 AM 35.6°F2.0°C 30.2°F-1.0°C 78% 2.6 mph S4.2 kmh S 4.5 mph7.2 kmh 28.97 in981.0 mb 0.00 in0.0 mm 0.00 in0.0 mm 0.00 in0.0 mm
11:55 AM 36.0°F2.2°C 30.2°F-1.0°C 78% 2.1 mph S3.4 kmh S 4.3 mph6.9 kmh 28.97 in981.0 mb 0.00 in0.0 mm 0.00 in0.0 mm 0.00 in0.0 mm
12:00 PM 36.3°F2.4°C 30.2°F-1.0°C 78% 2.8 mph S4.5 kmh S 4.3 mph6.9 kmh 28.97 in981.0 mb 0.00 in0.0 mm 0.00 in0.0 mm 0.00 in0.0 mm
12:05 PM 36.9°F2.7°C 30.2°F-1.0°C 78% 3.1 mph S5.0 kmh S 6.5 mph10.5 kmh 28.97 in981.0 mb 0.00 in0.0 mm 0.00 in0.0 mm 0.00 in0.0 mm
12:10 PM 37.4°F3.0°C 32.0°F0.0°C 78% 2.6 mph S4.2 kmh S 6.5 mph10.5 kmh 28.97 in981.0 mb 0.00 in0.0 mm 0.00 in0.0 mm 0.00 in0.0 mm
12:15 PM 37.8°F3.2°C 32.0°F0.0°C 78% 2.4 mph S3.9 kmh S 4.7 mph7.6 kmh 28.97 in981.0 mb 0.00 in0.0 mm 0.00 in0.0 mm 0.00 in0.0 mm
12:20 PM 37.4°F3.0°C 32.0°F0.0°C 77% 3.6 mph S5.8 kmh S 7.6 mph12.2 kmh 28.97 in981.0 mb 0.00 in0.0 mm 0.00 in0.0 mm 0.00 in0.0 mm
12:25 PM 37.0°F2.8°C 32.0°F0.0°C 77% 4.5 mph S7.2 kmh S 7.6 mph12.2 kmh 28.97 in981.0 mb 0.00 in0.0 mm 0.00 in0.0 mm 0.00 in0.0 mm
12:30 PM 36.9°F2.7°C 30.2°F-1.0°C 77% 3.5 mph S5.6 kmh S 6.0 mph9.7 kmh 28.97 in981.0 mb 0.00 in0.0 mm 0.00 in0.0 mm 0.00 in0.0 mm
12:35 PM 37.4°F3.0°C 32.0°F0.0°C 77% 2.5 mph S4.0 kmh S 4.5 mph7.2 kmh 28.97 in981.0 mb 0.00 in0.0 mm 0.00 in0.0 mm 0.00 in0.0 mm
12:40 PM 37.9°F3.3°C 32.0°F0.0°C 77% 3.9 mph S6.3 kmh S 8.5 mph13.7 kmh 28.91 in979.0 mb 0.00 in0.0 mm 0.00 in0.0 mm 0.00 in0.0 mm
12:45 PM 38.3°F3.5°C 32.0°F0.0°C 77% 4.6 mph SSW7.4 kmh SSW 8.5 mph13.7 kmh 28.91 in979.0 mb 0.00 in0.0 mm 0.00 in0.0 mm 0.00 in0.0 mm
12:50 PM 38.1°F3.4°C 32.0°F0.0°C 77% 3.5 mph SSW5.6 kmh SSW 8.5 mph13.7 kmh 28.91 in979.0 mb 0.00 in0.0 mm 0.00 in0.0 mm 0.00 in0.0 mm
12:55 PM 38.3°F3.5°C 32.0°F0.0°C 77% 3.2 mph S5.1 kmh S 6.0 mph9.7 kmh 28.94 in980.0 mb 0.00 in0.0 mm 0.00 in0.0 mm 0.00 in0.0 mm
01:00 PM 38.3°F3.5°C 32.0°F0.0°C 77% 4.5 mph S7.2 kmh S 9.8 mph15.8 kmh 28.94 in980.0 mb 0.00 in0.0 mm 0.00 in0.0 mm 0.00 in0.0 mm
01:05 PM 37.9°F3.3°C 32.0°F0.0°C 77% 4.8 mph SSW7.7 kmh SSW 9.8 mph15.8 kmh 28.94 in980.0 mb 0.00 in0.0 mm 0.00 in0.0 mm 0.00 in0.0 mm
01:10 PM 37.8°F3.2°C 32.0°F0.0°C 77% 4.3 mph SSW6.9 kmh SSW 5.6 mph9.0 kmh 28.94 in980.0 mb 0.00 in0.0 mm 0.00 in0.0 mm 0.00 in0.0 mm
01:15 PM 37.9°F3.3°C 32.0°F0.0°C 77% 4.0 mph SSW6.4 kmh SSW 6.5 mph10.5 kmh 28.94 in980.0 mb 0.00 in0.0 mm 0.00 in0.0 mm 0.00 in0.0 mm
01:20 PM 38.1°F3.4°C 32.0°F0.0°C 77% 4.1 mph S6.6 kmh S 7.4 mph11.9 kmh 28.94 in980.0 mb 0.00 in0.0 mm 0.00 in0.0 mm 0.00 in0.0 mm
01:25 PM 38.3°F3.5°C 32.0°F0.0°C 77% 4.7 mph S7.6 kmh S 7.4 mph11.9 kmh 28.94 in980.0 mb 0.00 in0.0 mm 0.00 in0.0 mm 0.00 in0.0 mm
01:30 PM 38.3°F3.5°C 32.0°F0.0°C 77% 4.5 mph S7.2 kmh S 6.5 mph10.5 kmh 28.94 in980.0 mb 0.00 in0.0 mm 0.00 in0.0 mm 0.00 in0.0 mm
01:35 PM 38.3°F3.5°C 32.0°F0.0°C 77% 4.0 mph S6.4 kmh S 6.5 mph10.5 kmh 28.94 in980.0 mb 0.00 in0.0 mm 0.00 in0.0 mm 0.00 in0.0 mm
01:40 PM 38.1°F3.4°C 32.0°F0.0°C 77% 3.4 mph S5.5 kmh S 5.8 mph9.3 kmh 28.94 in980.0 mb 0.00 in0.0 mm 0.00 in0.0 mm 0.00 in0.0 mm
01:45 PM 37.9°F3.3°C 32.0°F0.0°C 77% 3.3 mph S5.3 kmh S 6.3 mph10.1 kmh 28.94 in980.0 mb 0.00 in0.0 mm 0.00 in0.0 mm 0.00 in0.0 mm
01:50 PM 37.8°F3.2°C 32.0°F0.0°C 77% 3.7 mph S6.0 kmh S 6.3 mph10.1 kmh 28.94 in980.0 mb 0.00 in0.0 mm 0.00 in0.0 mm 0.00 in0.0 mm
01:55 PM 37.8°F3.2°C 32.0°F0.0°C 77% 3.7 mph S6.0 kmh S 6.3 mph10.1 kmh 28.94 in980.0 mb 0.00 in0.0 mm 0.00 in0.0 mm 0.00 in0.0 mm
02:00 PM 37.6°F3.1°C 32.0°F0.0°C 77% 3.7 mph S6.0 kmh S 6.0 mph9.7 kmh 28.94 in980.0 mb 0.00 in0.0 mm 0.00 in0.0 mm 0.00 in0.0 mm
02:05 PM 37.4°F3.0°C 32.0°F0.0°C 78% 4.0 mph SSE6.4 kmh SSE 6.5 mph10.5 kmh 28.94 in980.0 mb 0.00 in0.0 mm 0.00 in0.0 mm 0.00 in0.0 mm
02:10 PM 37.2°F2.9°C 32.0°F0.0°C 78% 3.6 mph S5.8 kmh S 6.5 mph10.5 kmh 28.91 in979.0 mb 0.00 in0.0 mm 0.00 in0.0 mm 0.00 in0.0 mm
02:15 PM 37.0°F2.8°C 32.0°F0.0°C 78% 3.5 mph S5.6 kmh S 6.5 mph10.5 kmh 28.91 in979.0 mb 0.00 in0.0 mm 0.00 in0.0 mm 0.00 in0.0 mm
02:20 PM 37.0°F2.8°C 32.0°F0.0°C 78% 3.3 mph SSW5.3 kmh SSW 6.9 mph11.1 kmh 28.91 in979.0 mb 0.00 in0.0 mm 0.00 in0.0 mm 0.00 in0.0 mm
02:25 PM 36.9°F2.7°C 30.2°F-1.0°C 78% 3.2 mph SSW5.1 kmh SSW 6.9 mph11.1 kmh 28.91 in979.0 mb 0.00 in0.0 mm 0.00 in0.0 mm 0.00 in0.0 mm
02:30 PM 36.7°F2.6°C 32.0°F0.0°C 79% 4.0 mph S6.4 kmh S 6.9 mph11.1 kmh 28.91 in979.0 mb 0.00 in0.0 mm 0.00 in0.0 mm 0.00 in0.0 mm
02:35 PM 36.5°F2.5°C 32.0°F0.0°C 79% 3.3 mph S5.3 kmh S 5.6 mph9.0 kmh 28.91 in979.0 mb 0.00 in0.0 mm 0.00 in0.0 mm 0.00 in0.0 mm
02:40 PM 36.3°F2.4°C 30.2°F-1.0°C 79% 2.7 mph S4.3 kmh S 5.4 mph8.7 kmh 28.91 in979.0 mb 0.00 in0.0 mm 0.00 in0.0 mm 0.00 in0.0 mm
02:45 PM 36.3°F2.4°C 30.2°F-1.0°C 79% 2.6 mph S4.2 kmh S 5.6 mph9.0 kmh 28.91 in979.0 mb 0.00 in0.0 mm 0.00 in0.0 mm 0.00 in0.0 mm
02:50 PM 36.0°F2.2°C 30.2°F-1.0°C 79% 2.4 mph SSW3.9 kmh SSW 5.6 mph9.0 kmh 28.91 in979.0 mb 0.00 in0.0 mm 0.00 in0.0 mm 0.00 in0.0 mm
02:55 PM 36.0°F2.2°C 30.2°F-1.0°C 79% 1.9 mph SSW3.1 kmh SSW 5.6 mph9.0 kmh 28.91 in979.0 mb 0.00 in0.0 mm 0.00 in0.0 mm 0.00 in0.0 mm
03:00 PM 36.0°F2.2°C 30.2°F-1.0°C 79% 1.3 mph S2.1 kmh S 3.1 mph5.0 kmh 28.91 in979.0 mb 0.00 in0.0 mm 0.00 in0.0 mm 0.00 in0.0 mm
03:05 PM 35.8°F2.1°C 30.2°F-1.0°C 79% 1.3 mph SSW2.1 kmh SSW 4.0 mph6.4 kmh 28.91 in979.0 mb 0.00 in0.0 mm 0.00 in0.0 mm 0.00 in0.0 mm
03:10 PM 35.6°F2.0°C 30.2°F-1.0°C 79% 2.0 mph SW3.2 kmh SW 4.0 mph6.4 kmh 28.91 in979.0 mb 0.00 in0.0 mm 0.00 in0.0 mm 0.00 in0.0 mm
03:15 PM 35.6°F2.0°C 30.2°F-1.0°C 79% 2.6 mph SSW4.2 kmh SSW 5.4 mph8.7 kmh 28.91 in979.0 mb 0.00 in0.0 mm 0.00 in0.0 mm 0.00 in0.0 mm
03:20 PM 35.6°F2.0°C 30.2°F-1.0°C 80% 2.7 mph SSW4.3 kmh SSW 5.4 mph8.7 kmh 28.91 in979.0 mb 0.00 in0.0 mm 0.00 in0.0 mm 0.00 in0.0 mm
03:25 PM 35.4°F1.9°C 30.2°F-1.0°C 80% 2.6 mph SSW4.2 kmh SSW 3.8 mph6.1 kmh 28.91 in979.0 mb 0.00 in0.0 mm 0.00 in0.0 mm 0.00 in0.0 mm
03:30 PM 35.4°F1.9°C 30.2°F-1.0°C 80% 2.4 mph S3.9 kmh S 3.8 mph6.1 kmh 28.91 in979.0 mb 0.00 in0.0 mm 0.00 in0.0 mm 0.00 in0.0 mm
03:35 PM 35.2°F1.8°C 30.2°F-1.0°C 80% 2.4 mph SSW3.9 kmh SSW 4.3 mph6.9 kmh 28.91 in979.0 mb 0.06 in1.5 mm 0.72 in18.3 mm 0.06 in1.5 mm
03:40 PM 35.2°F1.8°C 30.2°F-1.0°C 80% 1.9 mph SSW3.1 kmh SSW 4.3 mph6.9 kmh 28.88 in978.0 mb 0.06 in1.5 mm 0.00 in0.0 mm 0.06 in1.5 mm
03:45 PM 35.2°F1.8°C 30.2°F-1.0°C 80% 1.9 mph SSW3.1 kmh SSW 3.6 mph5.8 kmh 28.88 in978.0 mb 0.06 in1.5 mm 0.00 in0.0 mm 0.06 in1.5 mm
03:50 PM 35.2°F1.8°C 30.2°F-1.0°C 80% 2.1 mph SSW3.4 kmh SSW 3.6 mph5.8 kmh 28.88 in978.0 mb 0.06 in1.5 mm 0.00 in0.0 mm 0.06 in1.5 mm
03:55 PM 35.1°F1.7°C 30.2°F-1.0°C 80% 2.0 mph SSW3.2 kmh SSW 3.1 mph5.0 kmh 28.88 in978.0 mb 0.06 in1.5 mm 0.00 in0.0 mm 0.06 in1.5 mm
04:00 PM 35.1°F1.7°C 30.2°F-1.0°C 80% 2.6 mph SSW4.2 kmh SSW 4.3 mph6.9 kmh 28.88 in978.0 mb 0.06 in1.5 mm 0.00 in0.0 mm 0.06 in1.5 mm
04:05 PM 34.9°F1.6°C 30.2°F-1.0°C 80% 3.6 mph SSW5.8 kmh SSW 6.3 mph10.1 kmh 28.88 in978.0 mb 0.06 in1.5 mm 0.00 in0.0 mm 0.06 in1.5 mm
04:10 PM 34.9°F1.6°C 30.2°F-1.0°C 80% 2.9 mph SSW4.7 kmh SSW 6.3 mph10.1 kmh 28.68 in971.2 mb 0.06 in1.5 mm 0.00 in0.0 mm 0.06 in1.5 mm
04:15 PM 34.7°F1.5°C 30.2°F-1.0°C 80% 2.1 mph S3.4 kmh S 3.1 mph5.0 kmh 28.68 in971.2 mb 0.06 in1.5 mm 0.00 in0.0 mm 0.06 in1.5 mm
04:20 PM 34.5°F1.4°C 30.2°F-1.0°C 80% 1.6 mph SSW2.6 kmh SSW 3.1 mph5.0 kmh 28.68 in971.2 mb 0.06 in1.5 mm 0.00 in0.0 mm 0.06 in1.5 mm
04:25 PM 34.5°F1.4°C 30.2°F-1.0°C 80% 1.4 mph SW2.3 kmh SW 2.5 mph4.0 kmh 28.88 in978.0 mb 0.06 in1.5 mm 0.00 in0.0 mm 0.06 in1.5 mm
04:30 PM 34.3°F1.3°C 30.2°F-1.0°C 80% 1.3 mph WSW2.1 kmh WSW 2.5 mph4.0 kmh 28.88 in978.0 mb 0.06 in1.5 mm 0.00 in0.0 mm 0.06 in1.5 mm
04:35 PM 34.3°F1.3°C 30.2°F-1.0°C 81% 0.8 mph SW1.3 kmh SW 2.0 mph3.2 kmh 28.88 in978.0 mb 0.00 in0.0 mm 0.00 in0.0 mm 0.06 in1.5 mm
04:40 PM 34.3°F1.3°C 30.2°F-1.0°C 81% 1.0 mph SW1.6 kmh SW 2.0 mph3.2 kmh 28.88 in978.0 mb 0.00 in0.0 mm 0.00 in0.0 mm 0.06 in1.5 mm
04:45 PM 34.3°F1.3°C 30.2°F-1.0°C 81% 0.7 mph WSW1.1 kmh WSW 2.0 mph3.2 kmh 28.88 in978.0 mb 0.07 in1.8 mm 0.84 in21.3 mm 0.13 in3.3 mm
04:50 PM 34.3°F1.3°C 30.2°F-1.0°C 81% 0.5 mph WSW0.8 kmh WSW 1.3 mph2.1 kmh 28.88 in978.0 mb 0.07 in1.8 mm 0.00 in0.0 mm 0.13 in3.3 mm
04:55 PM 34.3°F1.3°C 30.2°F-1.0°C 81% 0.8 mph WSW1.3 kmh WSW 2.0 mph3.2 kmh 28.88 in978.0 mb 0.07 in1.8 mm 0.00 in0.0 mm 0.13 in3.3 mm
05:00 PM 34.3°F1.3°C 30.2°F-1.0°C 81% 0.4 mph WSW0.6 kmh WSW 2.0 mph3.2 kmh 28.88 in978.0 mb 0.07 in1.8 mm 0.00 in0.0 mm 0.13 in3.3 mm
05:05 PM 34.2°F1.2°C 30.2°F-1.0°C 81% 0.5 mph WSW0.8 kmh WSW 2.0 mph3.2 kmh 28.88 in978.0 mb 0.07 in1.8 mm 0.00 in0.0 mm 0.13 in3.3 mm
05:10 PM 34.2°F1.2°C 30.2°F-1.0°C 81% 1.0 mph WSW1.6 kmh WSW 2.7 mph4.3 kmh 28.88 in978.0 mb 0.07 in1.8 mm 0.00 in0.0 mm 0.13 in3.3 mm
05:15 PM 34.2°F1.2°C 30.2°F-1.0°C 81% 1.1 mph WSW1.8 kmh WSW 2.7 mph4.3 kmh 28.88 in978.0 mb 0.07 in1.8 mm 0.00 in0.0 mm 0.13 in3.3 mm
05:20 PM 34.2°F1.2°C 30.2°F-1.0°C 81% 0.6 mph SW1.0 kmh SW 2.2 mph3.5 kmh 28.88 in978.0 mb 0.07 in1.8 mm 0.00 in0.0 mm 0.13 in3.3 mm
05:25 PM 34.2°F1.2°C 30.2°F-1.0°C 81% 0.4 mph WSW0.6 kmh WSW 2.0 mph3.2 kmh 28.88 in978.0 mb 0.07 in1.8 mm 0.00 in0.0 mm 0.13 in3.3 mm
05:30 PM 34.2°F1.2°C 30.2°F-1.0°C 81% 0.4 mph WSW0.6 kmh WSW 2.0 mph3.2 kmh 28.88 in978.0 mb 0.07 in1.8 mm 0.00 in0.0 mm 0.13 in3.3 mm
05:35 PM 34.2°F1.2°C 30.2°F-1.0°C 81% 0.2 mph SW0.3 kmh SW 0.9 mph1.4 kmh 28.88 in978.0 mb 0.07 in1.8 mm 0.00 in0.0 mm 0.13 in3.3 mm
05:40 PM 34.2°F1.2°C 30.2°F-1.0°C 82% 0.5 mph WSW0.8 kmh WSW 2.0 mph3.2 kmh 28.88 in978.0 mb 0.07 in1.8 mm 0.00 in0.0 mm 0.13 in3.3 mm
05:45 PM 34.2°F1.2°C 30.2°F-1.0°C 82% 0.5 mph WSW0.8 kmh WSW 2.0 mph3.2 kmh 28.88 in978.0 mb 0.00 in0.0 mm 0.00 in0.0 mm 0.13 in3.3 mm
05:50 PM 34.0°F1.1°C 30.2°F-1.0°C 82% 0.1 mph WSW0.2 kmh WSW 0.9 mph1.4 kmh 28.88 in978.0 mb 0.00 in0.0 mm 0.00 in0.0 mm 0.13 in3.3 mm
05:55 PM 34.0°F1.1°C 30.2°F-1.0°C 82% Calm Calm -- 28.88 in978.0 mb 0.00 in0.0 mm 0.00 in0.0 mm 0.13 in3.3 mm
06:00 PM 33.8°F1.0°C 30.2°F-1.0°C 82% 0.1 mph WNW0.2 kmh WNW 0.9 mph1.4 kmh 28.88 in978.0 mb 0.00 in0.0 mm 0.00 in0.0 mm 0.13 in3.3 mm
06:05 PM 33.8°F1.0°C 30.2°F-1.0°C 82% 0.2 mph WNW0.3 kmh WNW 1.1 mph1.8 kmh 28.88 in978.0 mb 0.00 in0.0 mm 0.00 in0.0 mm 0.13 in3.3 mm
06:10 PM 33.8°F1.0°C 30.2°F-1.0°C 82% 0.3 mph WNW0.5 kmh WNW 1.1 mph1.8 kmh 28.88 in978.0 mb 0.00 in0.0 mm 0.00 in0.0 mm 0.13 in3.3 mm
06:15 PM 33.6°F0.9°C 30.2°F-1.0°C 82% 0.3 mph WNW0.5 kmh WNW 1.1 mph1.8 kmh 28.88 in978.0 mb 0.00 in0.0 mm 0.00 in0.0 mm 0.13 in3.3 mm
06:20 PM 33.6°F0.9°C 30.2°F-1.0°C 82% 0.5 mph WNW0.8 kmh WNW 1.6 mph2.6 kmh 28.88 in978.0 mb 0.00 in0.0 mm 0.00 in0.0 mm 0.13 in3.3 mm
06:25 PM 33.6°F0.9°C 30.2°F-1.0°C 82% 0.5 mph NW0.8 kmh NW 1.6 mph2.6 kmh 28.88 in978.0 mb 0.00 in0.0 mm 0.00 in0.0 mm 0.13 in3.3 mm
06:30 PM 33.4°F0.8°C 30.2°F-1.0°C 82% 0.1 mph NW0.2 kmh NW 0.9 mph1.4 kmh 28.88 in978.0 mb 0.00 in0.0 mm 0.00 in0.0 mm 0.13 in3.3 mm
06:35 PM 33.3°F0.7°C 28.4°F-2.0°C 82% 0.1 mph SW0.2 kmh SW 0.9 mph1.4 kmh 28.88 in978.0 mb 0.00 in0.0 mm 0.00 in0.0 mm 0.13 in3.3 mm
06:40 PM 33.3°F0.7°C 28.4°F-2.0°C 82% 0.5 mph W0.8 kmh W 2.0 mph3.2 kmh 28.88 in978.0 mb 0.00 in0.0 mm 0.00 in0.0 mm 0.13 in3.3 mm
06:45 PM 33.3°F0.7°C 28.4°F-2.0°C 82% 0.8 mph WSW1.3 kmh WSW 2.0 mph3.2 kmh 28.88 in978.0 mb 0.00 in0.0 mm 0.00 in0.0 mm 0.13 in3.3 mm
06:50 PM 33.1°F0.6°C 28.4°F-2.0°C 82% 0.9 mph WSW1.4 kmh WSW 2.0 mph3.2 kmh 28.88 in978.0 mb 0.00 in0.0 mm 0.00 in0.0 mm 0.13 in3.3 mm
06:55 PM 33.1°F0.6°C 28.4°F-2.0°C 82% 1.0 mph WSW1.6 kmh WSW 2.0 mph3.2 kmh 28.88 in978.0 mb 0.00 in0.0 mm 0.00 in0.0 mm 0.13 in3.3 mm
07:00 PM 33.1°F0.6°C 28.4°F-2.0°C 82% 1.0 mph WSW1.6 kmh WSW 2.5 mph4.0 kmh 28.88 in978.0 mb 0.00 in0.0 mm 0.00 in0.0 mm 0.13 in3.3 mm
07:05 PM 33.1°F0.6°C 28.4°F-2.0°C 82% 1.0 mph WSW1.6 kmh WSW 2.5 mph4.0 kmh 28.88 in978.0 mb 0.00 in0.0 mm 0.00 in0.0 mm 0.13 in3.3 mm
07:10 PM 33.1°F0.6°C 28.4°F-2.0°C 82% 1.1 mph WSW1.8 kmh WSW 2.5 mph4.0 kmh 28.88 in978.0 mb 0.00 in0.0 mm 0.00 in0.0 mm 0.13 in3.3 mm
07:15 PM 32.9°F0.5°C 28.4°F-2.0°C 82% 0.7 mph WSW1.1 kmh WSW 1.6 mph2.6 kmh 28.88 in978.0 mb 0.00 in0.0 mm 0.00 in0.0 mm 0.13 in3.3 mm
07:20 PM 32.9°F0.5°C 28.4°F-2.0°C 82% 0.4 mph SW0.6 kmh SW 1.1 mph1.8 kmh 28.88 in978.0 mb 0.00 in0.0 mm 0.00 in0.0 mm 0.13 in3.3 mm
07:25 PM 32.9°F0.5°C 28.4°F-2.0°C 82% 0.3 mph SW0.5 kmh SW 1.1 mph1.8 kmh 28.91 in979.0 mb 0.00 in0.0 mm 0.00 in0.0 mm 0.13 in3.3 mm
07:30 PM 32.9°F0.5°C 28.4°F-2.0°C 82% 0.6 mph WSW1.0 kmh WSW 2.0 mph3.2 kmh 28.91 in979.0 mb 0.00 in0.0 mm 0.00 in0.0 mm 0.13 in3.3 mm
07:35 PM 32.9°F0.5°C 28.4°F-2.0°C 82% 1.2 mph WSW1.9 kmh WSW 2.2 mph3.5 kmh 28.91 in979.0 mb 0.00 in0.0 mm 0.00 in0.0 mm 0.13 in3.3 mm
07:40 PM 32.9°F0.5°C 28.4°F-2.0°C 82% 1.8 mph SW2.9 kmh SW 3.4 mph5.5 kmh 28.65 in970.2 mb 0.00 in0.0 mm 0.00 in0.0 mm 0.13 in3.3 mm
07:45 PM 32.9°F0.5°C 28.4°F-2.0°C 82% 2.3 mph WSW3.7 kmh WSW 3.4 mph5.5 kmh 28.65 in970.2 mb 0.00 in0.0 mm 0.00 in0.0 mm 0.13 in3.3 mm
07:50 PM 32.9°F0.5°C 28.4°F-2.0°C 82% 2.1 mph WSW3.4 kmh WSW 3.1 mph5.0 kmh 28.65 in970.2 mb 0.00 in0.0 mm 0.00 in0.0 mm 0.13 in3.3 mm
07:55 PM 33.1°F0.6°C 28.4°F-2.0°C 82% 2.2 mph WSW3.5 kmh WSW 4.0 mph6.4 kmh 28.88 in978.0 mb 0.00 in0.0 mm 0.00 in0.0 mm 0.13 in3.3 mm
08:00 PM 33.1°F0.6°C 28.4°F-2.0°C 82% 2.3 mph WSW3.7 kmh WSW 4.0 mph6.4 kmh 28.88 in978.0 mb 0.00 in0.0 mm 0.00 in0.0 mm 0.13 in3.3 mm
08:05 PM 32.9°F0.5°C 28.4°F-2.0°C 82% 1.4 mph WSW2.3 kmh WSW 3.4 mph5.5 kmh 28.88 in978.0 mb 0.00 in0.0 mm 0.00 in0.0 mm 0.13 in3.3 mm
08:10 PM 32.9°F0.5°C 28.4°F-2.0°C 82% 1.0 mph WSW1.6 kmh WSW 2.7 mph4.3 kmh 28.88 in978.0 mb 0.00 in0.0 mm 0.00 in0.0 mm 0.13 in3.3 mm
08:15 PM 32.9°F0.5°C 28.4°F-2.0°C 82% 1.1 mph WSW1.8 kmh WSW 2.7 mph4.3 kmh 28.88 in978.0 mb 0.00 in0.0 mm 0.00 in0.0 mm 0.13 in3.3 mm
08:20 PM 32.7°F0.4°C 28.4°F-2.0°C 82% 0.5 mph WSW0.8 kmh WSW 1.6 mph2.6 kmh 28.88 in978.0 mb 0.00 in0.0 mm 0.00 in0.0 mm 0.13 in3.3 mm
08:25 PM 32.7°F0.4°C 28.4°F-2.0°C 82% 0.4 mph W0.6 kmh W 1.1 mph1.8 kmh 28.91 in979.0 mb 0.00 in0.0 mm 0.00 in0.0 mm 0.13 in3.3 mm
08:30 PM 32.5°F0.3°C 28.4°F-2.0°C 82% 0.3 mph W0.5 kmh W 1.1 mph1.8 kmh 28.91 in979.0 mb 0.00 in0.0 mm 0.00 in0.0 mm 0.13 in3.3 mm
08:35 PM 32.4°F0.2°C 28.4°F-2.0°C 82% 0.3 mph WSW0.5 kmh WSW 1.6 mph2.6 kmh 28.91 in979.0 mb 0.00 in0.0 mm 0.00 in0.0 mm 0.13 in3.3 mm
08:40 PM 32.5°F0.3°C 28.4°F-2.0°C 82% 0.5 mph WSW0.8 kmh WSW 1.6 mph2.6 kmh 28.91 in979.0 mb 0.00 in0.0 mm 0.00 in0.0 mm 0.13 in3.3 mm
08:45 PM 32.4°F0.2°C 28.4°F-2.0°C 82% 0.5 mph WSW0.8 kmh WSW 1.6 mph2.6 kmh 28.91 in979.0 mb 0.00 in0.0 mm 0.00 in0.0 mm 0.13 in3.3 mm
08:50 PM 32.4°F0.2°C 28.4°F-2.0°C 82% 0.2 mph WSW0.3 kmh WSW 1.6 mph2.6 kmh 28.91 in979.0 mb 0.00 in0.0 mm 0.00 in0.0 mm 0.13 in3.3 mm
08:55 PM 32.2°F0.1°C 28.4°F-2.0°C 82% 0.5 mph WSW0.8 kmh WSW 2.0 mph3.2 kmh 28.91 in979.0 mb 0.00 in0.0 mm 0.00 in0.0 mm 0.13 in3.3 mm
09:00 PM 32.4°F0.2°C 28.4°F-2.0°C 82% 1.2 mph WSW1.9 kmh WSW 2.2 mph3.5 kmh 28.91 in979.0 mb 0.00 in0.0 mm 0.00 in0.0 mm 0.13 in3.3 mm
09:05 PM 32.4°F0.2°C 28.4°F-2.0°C 82% 1.5 mph WSW2.4 kmh WSW 2.2 mph3.5 kmh 28.91 in979.0 mb 0.00 in0.0 mm 0.00 in0.0 mm 0.13 in3.3 mm
09:10 PM 32.4°F0.2°C 28.4°F-2.0°C 82% 1.3 mph WSW2.1 kmh WSW 2.7 mph4.3 kmh 28.85 in977.0 mb 0.00 in0.0 mm 0.00 in0.0 mm 0.13 in3.3 mm
09:15 PM 32.2°F0.1°C 28.4°F-2.0°C 82% 0.6 mph WSW1.0 kmh WSW 2.7 mph4.3 kmh 28.85 in977.0 mb 0.00 in0.0 mm 0.00 in0.0 mm 0.13 in3.3 mm
09:20 PM 32.0°F0.0°C 26.6°F-3.0°C 82% Calm Calm -- 28.85 in977.0 mb 0.00 in0.0 mm 0.00 in0.0 mm 0.13 in3.3 mm
09:25 PM 32.0°F0.0°C 26.6°F-3.0°C 82% Calm Calm -- 28.65 in970.2 mb 0.00 in0.0 mm 0.00 in0.0 mm 0.13 in3.3 mm
09:30 PM 32.0°F0.0°C 26.6°F-3.0°C 83% Calm Calm -- 28.65 in970.2 mb 0.00 in0.0 mm 0.00 in0.0 mm 0.13 in3.3 mm
09:35 PM 32.0°F0.0°C 26.6°F-3.0°C 83% Calm Calm -- 28.65 in970.2 mb 0.00 in0.0 mm 0.00 in0.0 mm 0.13 in3.3 mm
09:40 PM 32.0°F0.0°C 26.6°F-3.0°C 83% Calm Calm -- 28.82 in976.0 mb 0.00 in0.0 mm 0.00 in0.0 mm 0.13 in3.3 mm
09:45 PM 31.8°F-0.1°C 26.6°F-3.0°C 83% Calm Calm -- 28.82 in976.0 mb 0.00 in0.0 mm 0.00 in0.0 mm 0.13 in3.3 mm
09:50 PM 31.6°F-0.2°C 26.6°F-3.0°C 83% Calm Calm -- 28.82 in976.0 mb 0.00 in0.0 mm 0.00 in0.0 mm 0.13 in3.3 mm
09:55 PM 31.6°F-0.2°C 26.6°F-3.0°C 83% Calm Calm -- 28.82 in976.0 mb 0.00 in0.0 mm 0.00 in0.0 mm 0.13 in3.3 mm
10:00 PM 31.6°F-0.2°C 26.6°F-3.0°C 83% Calm Calm -- 28.82 in976.0 mb 0.00 in0.0 mm 0.00 in0.0 mm 0.13 in3.3 mm
10:05 PM 31.3°F-0.4°C 24.8°F-4.0°C 83% Calm Calm -- 28.82 in976.0 mb 0.00 in0.0 mm 0.00 in0.0 mm 0.13 in3.3 mm
10:10 PM 31.3°F-0.4°C 24.8°F-4.0°C 83% Calm Calm -- 28.85 in977.0 mb 0.00 in0.0 mm 0.00 in0.0 mm 0.13 in3.3 mm
10:15 PM 31.5°F-0.3°C 24.8°F-4.0°C 83% Calm Calm -- 28.85 in977.0 mb 0.00 in0.0 mm 0.00 in0.0 mm 0.13 in3.3 mm
10:20 PM 31.6°F-0.2°C 26.6°F-3.0°C 83% 0.5 mph WNW0.8 kmh WNW 1.6 mph2.6 kmh 28.85 in977.0 mb 0.00 in0.0 mm 0.00 in0.0 mm 0.13 in3.3 mm
10:25 PM 31.5°F-0.3°C 24.8°F-4.0°C 83% 0.8 mph W1.3 kmh W 1.6 mph2.6 kmh 28.82 in976.0 mb 0.00 in0.0 mm 0.00 in0.0 mm 0.13 in3.3 mm
10:30 PM 31.5°F-0.3°C 24.8°F-4.0°C 83% 0.4 mph WSW0.6 kmh WSW 1.6 mph2.6 kmh 28.82 in976.0 mb 0.00 in0.0 mm 0.00 in0.0 mm 0.13 in3.3 mm
10:35 PM 31.1°F-0.5°C 24.8°F-4.0°C 83% 0.2 mph SW0.3 kmh SW 0.9 mph1.4 kmh 28.82 in976.0 mb 0.00 in0.0 mm 0.00 in0.0 mm 0.13 in3.3 mm
10:40 PM 31.3°F-0.4°C 24.8°F-4.0°C 83% 0.4 mph WSW0.6 kmh WSW 1.6 mph2.6 kmh 28.85 in977.0 mb 0.00 in0.0 mm 0.00 in0.0 mm 0.13 in3.3 mm
10:45 PM 31.6°F-0.2°C 26.6°F-3.0°C 83% 1.2 mph WSW1.9 kmh WSW 2.7 mph4.3 kmh 28.85 in977.0 mb 0.00 in0.0 mm 0.00 in0.0 mm 0.13 in3.3 mm
10:50 PM 31.6°F-0.2°C 26.6°F-3.0°C 83% 2.3 mph WSW3.7 kmh WSW 3.4 mph5.5 kmh 28.85 in977.0 mb 0.00 in0.0 mm 0.00 in0.0 mm 0.13 in3.3 mm
10:55 PM 31.8°F-0.1°C 26.6°F-3.0°C 82% 3.0 mph WSW4.8 kmh WSW 3.6 mph5.8 kmh 28.82 in976.0 mb 0.00 in0.0 mm 0.00 in0.0 mm 0.13 in3.3 mm
11:00 PM 32.0°F0.0°C 26.6°F-3.0°C 82% 3.0 mph WSW4.8 kmh WSW 3.8 mph6.1 kmh 28.82 in976.0 mb 0.00 in0.0 mm 0.00 in0.0 mm 0.13 in3.3 mm
11:05 PM 32.0°F0.0°C 26.6°F-3.0°C 82% 2.7 mph WSW4.3 kmh WSW 3.8 mph6.1 kmh 28.82 in976.0 mb 0.00 in0.0 mm 0.00 in0.0 mm 0.13 in3.3 mm
11:10 PM 31.8°F-0.1°C 26.6°F-3.0°C 82% 1.6 mph WSW2.6 kmh WSW 3.1 mph5.0 kmh 28.85 in977.0 mb 0.00 in0.0 mm 0.00 in0.0 mm 0.13 in3.3 mm
11:15 PM 31.6°F-0.2°C 26.6°F-3.0°C 82% 0.5 mph WSW0.8 kmh WSW 1.6 mph2.6 kmh 28.85 in977.0 mb 0.00 in0.0 mm 0.00 in0.0 mm 0.13 in3.3 mm
11:20 PM 31.5°F-0.3°C 24.8°F-4.0°C 82% 0.2 mph WSW0.3 kmh WSW 2.0 mph3.2 kmh 28.85 in977.0 mb 0.00 in0.0 mm 0.00 in0.0 mm 0.13 in3.3 mm
11:25 PM 31.5°F-0.3°C 24.8°F-4.0°C 82% 0.3 mph WNW0.5 kmh WNW 2.0 mph3.2 kmh 28.85 in977.0 mb 0.00 in0.0 mm 0.00 in0.0 mm 0.13 in3.3 mm
11:30 PM 31.5°F-0.3°C 24.8°F-4.0°C 82% 0.5 mph NW0.8 kmh NW 1.6 mph2.6 kmh 28.85 in977.0 mb 0.00 in0.0 mm 0.00 in0.0 mm 0.13 in3.3 mm
11:35 PM 31.5°F-0.3°C 24.8°F-4.0°C 82% 0.7 mph NNW1.1 kmh NNW 1.6 mph2.6 kmh 28.85 in977.0 mb 0.00 in0.0 mm 0.00 in0.0 mm 0.13 in3.3 mm
11:40 PM 31.3°F-0.4°C 24.8°F-4.0°C 82% 0.4 mph N0.6 kmh N 1.6 mph2.6 kmh 28.85 in977.0 mb 0.00 in0.0 mm 0.00 in0.0 mm 0.13 in3.3 mm
11:45 PM 31.5°F-0.3°C 24.8°F-4.0°C 82% 0.1 mph NW0.2 kmh NW 1.1 mph1.8 kmh 28.85 in977.0 mb 0.00 in0.0 mm 0.00 in0.0 mm 0.13 in3.3 mm
11:50 PM 31.3°F-0.4°C 24.8°F-4.0°C 82% 0.1 mph WNW0.2 kmh WNW 1.1 mph1.8 kmh 28.85 in977.0 mb 0.00 in0.0 mm 0.00 in0.0 mm 0.13 in3.3 mm
11:55 PM 31.1°F-0.5°C 24.8°F-4.0°C 82% 0.1 mph WNW0.2 kmh WNW 1.1 mph1.8 kmh 28.85 in977.0 mb 0.00 in0.0 mm 0.00 in0.0 mm 0.13 in3.3 mm